Time;durP1;ratioP1;P1;durP2;ratioP2;P2;SDS_P1;SDS_P2;PMS_P1;PMS_P2;Temp;Humidity;BMP_temperature;BMP_pressure;BME280_temperature;BME280_humidity;BME280_pressure;Samples;Min_cycle;Max_cycle;Signal;HPM_P1;HPM_P2
2022/08/30 00:01:05;;;;;;;4.03;2.22;;;19.40;99.90;;;;;;5074687;28;20101;-75
2022/08/30 00:03:46;;;;;;;3.22;1.63;;;19.50;99.90;;;;;;5074353;28;20362;-74
2022/08/30 00:06:16;;;;;;;5.05;2.05;;;19.70;99.90;;;;;;5074961;28;20119;-76
2022/08/30 00:08:44;;;;;;;2.55;1.70;;;20.10;99.90;;;;;;5074673;28;20162;-74
2022/08/30 00:11:16;;;;;;;3.30;1.90;;;20.40;99.90;;;;;;5074387;28;20040;-74
2022/08/30 00:13:46;;;;;;;3.80;1.80;;;20.70;99.90;;;;;;5074818;28;20388;-75
2022/08/30 00:16:16;;;;;;;3.78;2.13;;;20.90;99.90;;;;;;5076001;28;20025;-73
2022/08/30 00:18:45;;;;;;;2.90;1.77;;;21.10;99.90;;;;;;5075869;28;20048;-73
2022/08/30 00:21:13;;;;;;;4.63;2.08;;;21.10;99.90;;;;;;5075630;28;20468;-73
2022/08/30 00:23:41;;;;;;;3.50;2.00;;;21.20;99.90;;;;;;5073852;28;20028;-74
2022/08/30 00:26:08;;;;;;;3.13;2.53;;;21.20;99.90;;;;;;5073724;28;20024;-73
2022/08/30 00:28:36;;;;;;;3.05;1.90;;;21.30;99.90;;;;;;5073642;28;20086;-74
2022/08/30 00:31:05;;;;;;;3.35;2.08;;;21.40;99.90;;;;;;5073761;28;20550;-73
2022/08/30 00:33:32;;;;;;;6.63;2.40;;;21.50;99.90;;;;;;5075258;28;20481;-74
2022/08/30 00:36:00;;;;;;;4.47;1.90;;;21.60;99.90;;;;;;5073787;28;20025;-74
2022/08/30 00:38:27;;;;;;;3.28;2.30;;;21.70;99.90;;;;;;5074047;28;20068;-73
2022/08/30 00:40:54;;;;;;;4.03;2.10;;;21.70;99.90;;;;;;5075048;28;20477;-74
2022/08/30 00:43:26;;;;;;;3.05;1.75;;;21.90;99.90;;;;;;5074818;28;20025;-74
2022/08/30 00:45:54;;;;;;;4.00;2.00;;;21.90;99.90;;;;;;5074714;28;20036;-74
2022/08/30 00:48:22;;;;;;;3.10;1.95;;;22.20;99.90;;;;;;5073186;28;20111;-73
2022/08/30 00:50:55;;;;;;;3.35;1.83;;;22.30;99.90;;;;;;5073207;28;20035;-74
2022/08/30 00:53:28;;;;;;;3.72;2.03;;;22.30;99.90;;;;;;5074629;28;20496;-73
2022/08/30 00:55:56;;;;;;;5.47;2.45;;;22.20;99.90;;;;;;5074281;28;20162;-72
2022/08/30 00:58:30;;;;;;;4.10;2.05;;;22.40;99.90;;;;;;5074384;28;20021;-73
2022/08/30 01:00:59;;;;;;;3.83;1.80;;;22.50;99.90;;;;;;5072932;28;20017;-73
2022/08/30 01:03:27;;;;;;;3.83;1.90;;;22.30;99.90;;;;;;5074072;28;20095;-74
2022/08/30 01:05:55;;;;;;;5.70;2.15;;;22.20;99.90;;;;;;5072851;28;20101;-75
2022/08/30 01:08:22;;;;;;;3.65;1.85;;;22.30;99.90;;;;;;5072961;28;20033;-74
2022/08/30 01:10:52;;;;;;;4.28;2.00;;;22.40;99.90;;;;;;5072357;28;20073;-74
2022/08/30 01:13:21;;;;;;;6.07;1.80;;;22.40;99.90;;;;;;5074536;28;20388;-74
2022/08/30 01:15:49;;;;;;;3.33;2.20;;;22.50;99.90;;;;;;5072823;28;20500;-74
2022/08/30 01:18:17;;;;;;;3.40;2.08;;;22.60;99.90;;;;;;5074202;28;20549;-75
2022/08/30 01:21:02;;;;;;;3.50;2.17;;;22.60;99.90;;;;;;5074164;28;20437;-74
2022/08/30 01:23:31;;;;;;;5.22;2.00;;;22.60;99.90;;;;;;5073085;28;20113;-74
2022/08/30 01:25:59;;;;;;;3.78;1.70;;;22.80;99.90;;;;;;5074518;28;20028;-74
2022/08/30 01:28:28;;;;;;;3.63;1.90;;;22.90;99.90;;;;;;5072970;28;20078;-74
2022/08/30 01:30:56;;;;;;;4.88;1.95;;;22.80;99.90;;;;;;5074049;28;20029;-74
2022/08/30 01:33:23;;;;;;;2.70;1.83;;;22.90;99.90;;;;;;5074507;28;20074;-74
2022/08/30 01:36:06;;;;;;;2.97;1.65;;;22.90;99.90;;;;;;5072958;28;20047;-74
2022/08/30 01:38:45;;;;;;;3.92;1.95;;;22.80;99.90;;;;;;5074394;28;20025;-75
2022/08/30 01:41:14;;;;;;;3.70;1.88;;;22.80;99.90;;;;;;5073231;28;20500;-76
2022/08/30 01:43:43;;;;;;;4.85;2.45;;;22.90;99.90;;;;;;5074000;28;20147;-75
2022/08/30 01:46:11;;;;;;;2.67;1.88;;;22.80;99.90;;;;;;5074786;28;20074;-75
2022/08/30 01:48:40;;;;;;;2.83;1.98;;;23.00;99.90;;;;;;5073341;28;20547;-75
2022/08/30 01:51:11;;;;;;;3.10;1.90;;;23.10;99.90;;;;;;5072944;28;20033;-75
2022/08/30 01:53:41;;;;;;;5.20;2.30;;;23.20;99.90;;;;;;5073119;28;20057;-75
2022/08/30 01:56:09;;;;;;;3.03;2.10;;;23.30;99.90;;;;;;5073349;28;20119;-76
2022/08/30 01:58:38;;;;;;;3.75;2.10;;;23.30;99.90;;;;;;5073071;28;20553;-74
2022/08/30 02:01:08;;;;;;;4.43;2.38;;;23.20;99.90;;;;;;5073243;28;20025;-76
2022/08/30 02:03:36;;;;;;;5.55;2.30;;;23.20;99.90;;;;;;5074735;28;20083;-75
2022/08/30 02:06:10;;;;;;;3.05;2.08;;;23.40;99.90;;;;;;5074467;28;20096;-75
2022/08/30 02:08:41;;;;;;;5.47;2.10;;;23.30;99.90;;;;;;5073132;28;20488;-76
2022/08/30 02:11:10;;;;;;;3.65;1.83;;;23.50;99.90;;;;;;5073439;28;20025;-76
2022/08/30 02:13:40;;;;;;;3.30;1.88;;;23.60;99.90;;;;;;5072866;28;20036;-75
2022/08/30 02:16:09;;;;;;;3.87;2.27;;;23.50;99.90;;;;;;5072866;28;20507;-76
2022/08/30 02:18:40;;;;;;;4.43;2.00;;;23.60;99.90;;;;;;5072868;28;20760;-75
2022/08/30 02:21:08;;;;;;;5.13;2.08;;;23.80;99.90;;;;;;5075178;28;20013;-75
2022/08/30 02:23:37;;;;;;;4.75;2.25;;;23.90;99.90;;;;;;5078444;28;20100;-76
2022/08/30 02:26:05;;;;;;;4.45;2.10;;;23.70;99.90;;;;;;5076844;28;20029;-76
2022/08/30 02:28:32;;;;;;;7.88;3.10;;;23.60;99.90;;;;;;5077766;28;20079;-76
2022/08/30 02:31:00;;;;;;;4.93;2.05;;;23.80;99.90;;;;;;5077966;28;20417;-76
2022/08/30 02:33:28;;;;;;;4.07;2.30;;;23.80;99.90;;;;;;5075913;28;20437;-76
2022/08/30 02:35:55;;;;;;;5.28;2.67;;;24.00;99.90;;;;;;5059843;28;20032;-75
2022/08/30 02:38:24;;;;;;;4.97;2.38;;;23.90;99.90;;;;;;5076900;28;20021;-75
2022/08/30 02:40:52;;;;;;;4.38;2.05;;;24.00;99.90;;;;;;5075611;28;20415;-76
2022/08/30 02:43:19;;;;;;;5.15;2.40;;;23.80;99.90;;;;;;5075446;28;20020;-75
2022/08/30 02:45:47;;;;;;;5.07;2.63;;;23.80;99.90;;;;;;5075708;28;20111;-75
2022/08/30 02:48:15;;;;;;;4.13;2.20;;;23.70;99.90;;;;;;5077189;28;20361;-76
2022/08/30 02:50:44;;;;;;;2.53;1.85;;;23.70;99.90;;;;;;5077125;28;20021;-76
2022/08/30 02:53:12;;;;;;;5.03;2.08;;;23.70;99.90;;;;;;5075519;28;20045;-76
2022/08/30 02:55:39;;;;;;;2.30;1.77;;;23.80;99.90;;;;;;5075763;28;20060;-77
2022/08/30 02:58:07;;;;;;;3.17;1.80;;;23.80;99.90;;;;;;5075349;28;20023;-75
2022/08/30 03:00:34;;;;;;;2.60;1.88;;;23.80;99.90;;;;;;5077790;28;20021;-75
2022/08/30 03:03:06;;;;;;;4.10;2.28;;;23.90;99.90;;;;;;5077598;28;20020;-75
2022/08/30 03:05:34;;;;;;;3.83;1.90;;;23.70;99.90;;;;;;5075983;28;20024;-75
2022/08/30 03:08:01;;;;;;;3.47;1.85;;;23.80;99.90;;;;;;5058730;28;20032;-76
2022/08/30 03:10:29;;;;;;;3.00;1.92;;;23.90;99.90;;;;;;5076753;28;20090;-76
2022/08/30 03:12:57;;;;;;;4.03;2.10;;;24.10;99.90;;;;;;5077268;28;20587;-76
2022/08/30 03:15:24;;;;;;;2.58;1.67;;;24.10;99.90;;;;;;5075360;28;20020;-76
2022/08/30 03:17:53;;;;;;;5.18;2.10;;;24.20;99.90;;;;;;5076968;28;20028;-77
2022/08/30 03:20:22;;;;;;;2.75;2.03;;;24.20;99.90;;;;;;5075678;28;20031;-75
2022/08/30 03:22:50;;;;;;;2.47;1.83;;;24.20;99.90;;;;;;5075287;28;20027;-75
2022/08/30 03:25:19;;;;;;;3.60;1.80;;;24.00;99.90;;;;;;5075494;28;20020;-76
2022/08/30 03:27:49;;;;;;;2.45;1.90;;;24.20;99.90;;;;;;5076358;28;20024;-76
2022/08/30 03:30:18;;;;;;;2.70;1.70;;;24.30;99.90;;;;;;5060929;28;20100;-77
2022/08/30 03:32:46;;;;;;;2.70;1.80;;;24.40;99.90;;;;;;5074746;28;20500;-75
2022/08/30 03:35:14;;;;;;;1.92;1.40;;;24.50;99.90;;;;;;5074908;28;20082;-76
2022/08/30 03:37:42;;;;;;;2.83;1.40;;;24.40;99.90;;;;;;5075213;28;20036;-76
2022/08/30 03:40:11;;;;;;;2.95;1.42;;;24.20;99.90;;;;;;5075054;28;20027;-78
2022/08/30 03:42:40;;;;;;;2.50;1.50;;;24.10;99.90;;;;;;5075167;28;20036;-75
2022/08/30 03:45:08;;;;;;;1.95;1.42;;;24.30;99.90;;;;;;5076334;28;20031;-78
2022/08/30 03:47:35;;;;;;;2.80;1.48;;;24.20;99.90;;;;;;5076878;28;20027;-76
2022/08/30 03:50:04;;;;;;;2.22;1.58;;;24.30;99.90;;;;;;5075542;28;20111;-76
2022/08/30 03:52:31;;;;;;;3.50;1.50;;;24.40;99.90;;;;;;5076535;28;20033;-76
2022/08/30 03:54:59;;;;;;;2.95;1.55;;;24.10;99.90;;;;;;5075342;28;20039;-76
2022/08/30 03:57:28;;;;;;;2.50;1.33;;;24.20;99.90;;;;;;5076563;28;20026;-76
2022/08/30 03:59:55;;;;;;;2.25;1.33;;;24.00;99.90;;;;;;5076484;28;20097;-76
2022/08/30 04:02:23;;;;;;;3.83;1.40;;;24.20;99.90;;;;;;5076918;28;20027;-76
2022/08/30 04:04:50;;;;;;;3.15;1.52;;;24.20;99.90;;;;;;5075467;28;20031;-76
2022/08/30 04:07:18;;;;;;;3.17;1.25;;;24.30;99.90;;;;;;5075196;28;20031;-76
2022/08/30 04:09:46;;;;;;;1.70;1.20;;;24.20;99.90;;;;;;5075411;28;20029;-76
2022/08/30 04:12:13;;;;;;;1.48;1.10;;;24.20;99.90;;;;;;5076862;28;20066;-76
2022/08/30 04:14:41;;;;;;;2.13;1.20;;;24.30;99.90;;;;;;5074981;28;20071;-79
2022/08/30 04:17:09;;;;;;;2.45;1.35;;;24.40;99.90;;;;;;5074497;28;20028;-77
2022/08/30 04:19:36;;;;;;;2.95;1.30;;;24.30;99.90;;;;;;5076145;28;20055;-76
2022/08/30 04:22:04;;;;;;;2.28;1.50;;;24.00;99.90;;;;;;5075701;28;20022;-76
2022/08/30 04:24:33;;;;;;;1.88;1.27;;;23.80;99.90;;;;;;5076439;28;20024;-75
2022/08/30 04:27:00;;;;;;;2.38;1.10;;;24.00;99.90;;;;;;5075370;28;20054;-77
2022/08/30 04:29:28;;;;;;;1.60;1.20;;;24.30;99.90;;;;;;5074635;28;20483;-75
2022/08/30 04:31:55;;;;;;;1.60;1.05;;;24.40;99.90;;;;;;5074280;28;20029;-77
2022/08/30 04:34:23;;;;;;;2.92;1.30;;;24.20;99.90;;;;;;5074790;28;20119;-78
2022/08/30 04:36:50;;;;;;;1.63;1.35;;;24.00;99.90;;;;;;5076083;28;20358;-76
2022/08/30 04:39:21;;;;;;;2.30;1.17;;;24.10;99.90;;;;;;5074271;28;20020;-75
2022/08/30 04:41:49;;;;;;;1.73;1.10;;;24.00;99.90;;;;;;5074282;28;20394;-75
2022/08/30 04:44:16;;;;;;;2.20;1.30;;;23.80;99.90;;;;;;5073811;28;20122;-75
2022/08/30 04:46:43;;;;;;;2.70;1.40;;;23.80;99.90;;;;;;5075517;28;20447;-76
2022/08/30 04:49:11;;;;;;;3.17;1.23;;;23.90;99.90;;;;;;5074706;28;20024;-77
2022/08/30 04:51:38;;;;;;;2.50;1.40;;;23.80;99.90;;;;;;5076248;28;20024;-77
2022/08/30 04:54:05;;;;;;;2.92;1.27;;;23.80;99.90;;;;;;5074430;28;20052;-76
2022/08/30 04:56:33;;;;;;;3.22;1.30;;;23.70;99.90;;;;;;5075274;28;20021;-77
2022/08/30 04:59:01;;;;;;;1.70;1.10;;;23.80;99.90;;;;;;5074382;28;20024;-76
2022/08/30 05:01:30;;;;;;;2.22;1.13;;;23.60;99.90;;;;;;5075619;28;20017;-76
2022/08/30 05:03:58;;;;;;;2.30;1.25;;;23.60;99.90;;;;;;5075073;28;20074;-77
2022/08/30 05:06:30;;;;;;;2.30;1.50;;;23.50;99.90;;;;;;5073542;28;20110;-77
2022/08/30 05:08:59;;;;;;;3.15;1.30;;;23.40;99.90;;;;;;5074709;28;20029;-77
2022/08/30 05:11:27;;;;;;;2.72;1.13;;;23.40;99.90;;;;;;5073683;28;20115;-77
2022/08/30 05:13:54;;;;;;;2.55;1.35;;;23.20;99.90;;;;;;5073622;28;20481;-77
2022/08/30 05:16:22;;;;;;;1.77;1.00;;;23.20;99.90;;;;;;5074030;28;20025;-76
2022/08/30 05:18:51;;;;;;;2.78;1.40;;;23.20;99.90;;;;;;5074992;28;20017;-77
2022/08/30 05:21:22;;;;;;;1.73;1.20;;;23.20;99.90;;;;;;5074922;28;20024;-78
2022/08/30 05:23:50;;;;;;;3.17;1.50;;;23.20;99.90;;;;;;5075673;28;20066;-76
2022/08/30 05:26:21;;;;;;;2.28;1.20;;;23.10;99.90;;;;;;5075119;28;20021;-76
2022/08/30 05:28:49;;;;;;;3.58;1.10;;;23.00;99.90;;;;;;5073881;28;20025;-76
2022/08/30 05:31:26;;;;;;;2.63;1.00;;;23.10;99.90;;;;;;5074119;28;20120;-76
2022/08/30 05:33:55;;;;;;;2.55;1.20;;;23.10;99.90;;;;;;5076732;28;20035;-78
2022/08/30 05:36:25;;;;;;;2.75;1.50;;;23.10;99.90;;;;;;5076246;28;20024;-76
2022/08/30 05:38:53;;;;;;;3.15;1.48;;;23.10;99.90;;;;;;5075339;28;20489;-77
2022/08/30 05:41:23;;;;;;;2.53;1.42;;;22.90;99.90;;;;;;5073781;28;20184;-78
2022/08/30 05:43:54;;;;;;;2.95;1.52;;;22.90;99.90;;;;;;5073921;28;20020;-76
2022/08/30 05:46:21;;;;;;;1.90;1.10;;;22.90;99.90;;;;;;5075686;28;20042;-77
2022/08/30 05:48:50;;;;;;;1.83;1.13;;;22.80;99.90;;;;;;5074881;28;20070;-78
2022/08/30 05:51:20;;;;;;;3.35;1.73;;;22.70;99.90;;;;;;5073817;28;20115;-78
2022/08/30 05:53:50;;;;;;;1.35;1.20;;;22.50;99.90;;;;;;5074455;28;20045;-77
2022/08/30 05:56:20;;;;;;;3.05;1.30;;;22.40;99.90;;;;;;5076135;28;20039;-76
2022/08/30 05:58:48;;;;;;;1.60;1.20;;;22.40;99.90;;;;;;5077478;28;20021;-76
2022/08/30 06:01:26;;;;;;;1.85;1.10;;;22.30;99.90;;;;;;5078673;28;20088;-76
2022/08/30 06:03:55;;;;;;;3.58;1.30;;;22.10;99.90;;;;;;5077728;28;20059;-77
2022/08/30 06:06:23;;;;;;;3.95;1.30;;;22.10;99.90;;;;;;5077280;28;20038;-77
2022/08/30 06:08:51;;;;;;;1.70;1.15;;;22.00;99.90;;;;;;5077197;28;20546;-77
2022/08/30 06:11:22;;;;;;;2.42;1.25;;;22.00;99.90;;;;;;5077795;28;20051;-76
2022/08/30 06:13:51;;;;;;;2.10;1.13;;;22.10;99.90;;;;;;5077099;28;20029;-76
2022/08/30 06:16:23;;;;;;;3.83;1.60;;;21.90;99.90;;;;;;5077039;28;20029;-76
2022/08/30 06:18:50;;;;;;;2.28;1.20;;;21.90;99.90;;;;;;5077669;28;20310;-77
2022/08/30 06:21:29;;;;;;;3.38;1.20;;;21.80;99.90;;;;;;5079215;28;20024;-77
2022/08/30 06:23:57;;;;;;;2.70;1.30;;;21.70;99.90;;;;;;5077783;28;20497;-76
2022/08/30 06:26:26;;;;;;;3.45;1.60;;;21.60;99.90;;;;;;5077533;28;20024;-76
2022/08/30 06:28:54;;;;;;;2.78;1.38;;;21.60;99.90;;;;;;5078068;28;20109;-76
2022/08/30 06:31:23;;;;;;;2.13;1.55;;;21.50;99.90;;;;;;5078888;28;20025;-77
2022/08/30 06:33:52;;;;;;;1.98;1.30;;;21.40;99.90;;;;;;5078244;28;20028;-78
2022/08/30 06:36:23;;;;;;;3.97;1.83;;;21.40;99.90;;;;;;5076949;28;20036;-76
2022/08/30 06:38:56;;;;;;;2.83;1.50;;;21.30;99.90;;;;;;5078787;28;20033;-76
2022/08/30 06:41:26;;;;;;;2.42;1.30;;;21.20;99.90;;;;;;5078465;28;20499;-76
2022/08/30 06:43:55;;;;;;;1.70;0.98;;;21.10;99.90;;;;;;5079166;28;20048;-78
2022/08/30 06:46:28;;;;;;;3.60;1.48;;;21.00;99.90;;;;;;5077177;28;20082;-75
2022/08/30 06:48:56;;;;;;;1.50;1.40;;;21.00;99.90;;;;;;5079359;28;20434;-75
2022/08/30 06:51:26;;;;;;;1.92;1.60;;;20.90;99.90;;;;;;5076613;28;20024;-76
2022/08/30 06:53:54;;;;;;;2.03;1.30;;;20.80;99.90;;;;;;5079280;28;20123;-77
2022/08/30 06:56:22;;;;;;;1.85;1.40;;;20.80;99.90;;;;;;5077098;28;20034;-76
2022/08/30 06:58:50;;;;;;;2.33;1.20;;;20.70;99.90;;;;;;5077784;28;20075;-78
2022/08/30 07:01:24;;;;;;;3.13;1.60;;;20.60;99.90;;;;;;5079044;28;20017;-77
2022/08/30 07:03:52;;;;;;;2.33;1.45;;;20.60;99.90;;;;;;5077625;28;20037;-76
2022/08/30 07:06:21;;;;;;;1.77;1.30;;;20.60;99.90;;;;;;5078797;28;20051;-76
2022/08/30 07:08:49;;;;;;;2.88;1.50;;;20.50;99.90;;;;;;5077222;28;20032;-77
2022/08/30 07:11:36;;;;;;;4.72;1.92;;;20.30;99.90;;;;;;5078423;28;20032;-78
2022/08/30 07:14:04;;;;;;;2.67;1.40;;;20.20;99.90;;;;;;5076927;28;20435;-77
2022/08/30 07:16:32;;;;;;;3.03;1.92;;;20.20;99.90;;;;;;5076788;28;20092;-76
2022/08/30 07:19:01;;;;;;;3.88;1.40;;;20.10;99.90;;;;;;5076746;28;20541;-76
2022/08/30 07:21:35;;;;;;;3.05;1.25;;;20.00;99.90;;;;;;5077619;28;20012;-76
2022/08/30 07:24:03;;;;;;;3.55;1.90;;;19.90;99.90;;;;;;5076455;28;20021;-77
2022/08/30 07:26:40;;;;;;;3.00;1.60;;;19.80;99.90;;;;;;5077565;28;20110;-76
2022/08/30 07:29:07;;;;;;;2.70;1.42;;;19.70;99.90;;;;;;5061303;28;20037;-76
2022/08/30 07:31:36;;;;;;;2.65;1.40;;;19.60;99.90;;;;;;5075355;28;20121;-76
2022/08/30 07:34:05;;;;;;;3.35;1.80;;;19.50;99.90;;;;;;5077412;28;20078;-77
2022/08/30 07:36:33;;;;;;;2.97;1.38;;;19.40;99.90;;;;;;5077627;28;20078;-76
2022/08/30 07:39:01;;;;;;;3.30;1.42;;;19.30;99.90;;;;;;5076390;28;20455;-76
2022/08/30 07:41:31;;;;;;;7.32;2.05;;;19.20;99.90;;;;;;5077668;28;20020;-76
2022/08/30 07:43:59;;;;;;;3.22;1.85;;;19.20;99.90;;;;;;5078344;28;20024;-78
2022/08/30 07:46:27;;;;;;;3.28;1.80;;;19.10;99.90;;;;;;5077026;28;20024;-73
2022/08/30 07:48:54;;;;;;;3.10;1.80;;;19.00;99.90;;;;;;5074138;28;20043;-75
2022/08/30 07:51:25;;;;;;;4.05;1.58;;;18.90;99.90;;;;;;5077074;28;20048;-76
2022/08/30 07:53:55;;;;;;;4.57;2.45;;;18.80;99.90;;;;;;5077524;28;20048;-77
2022/08/30 07:56:23;;;;;;;4.65;1.85;;;18.70;99.90;;;;;;5077228;28;20028;-77
2022/08/30 07:58:51;;;;;;;4.53;2.00;;;18.70;99.90;;;;;;5076062;28;20054;-77
2022/08/30 08:01:20;;;;;;;4.15;2.42;;;18.60;99.90;;;;;;5077301;28;20032;-77
2022/08/30 08:03:49;;;;;;;5.07;2.10;;;18.50;99.90;;;;;;5077061;28;20020;-77
2022/08/30 08:06:18;;;;;;;6.25;2.53;;;18.40;99.90;;;;;;5077097;28;20482;-77
2022/08/30 08:08:46;;;;;;;5.30;2.22;;;18.30;99.90;;;;;;5077045;28;20028;-77
2022/08/30 08:11:18;;;;;;;4.05;2.47;;;18.20;99.90;;;;;;5075564;28;20036;-77
2022/08/30 08:13:47;;;;;;;3.00;2.10;;;18.20;99.90;;;;;;5076798;28;20021;-77
2022/08/30 08:16:14;;;;;;;7.25;4.57;;;18.00;99.90;;;;;;5076455;28;20107;-77
2022/08/30 08:18:42;;;;;;;7.97;5.78;;;18.00;99.90;;;;;;5076194;28;20080;-77
2022/08/30 08:21:10;;;;;;;11.63;7.13;;;18.00;99.90;;;;;;5076126;28;20082;-76
2022/08/30 08:23:37;;;;;;;11.77;9.80;;;18.10;99.90;;;;;;5074139;28;20023;-76
2022/08/30 08:26:05;;;;;;;8.88;6.07;;;18.10;99.90;;;;;;5074452;28;20373;-76
2022/08/30 08:28:32;;;;;;;5.38;3.90;;;18.20;99.90;;;;;;5076262;28;20025;-77
2022/08/30 08:31:00;;;;;;;3.42;2.33;;;18.40;99.90;;;;;;5076649;28;20108;-75
2022/08/30 08:33:27;;;;;;;4.15;1.83;;;18.50;99.90;;;;;;5076133;28;20541;-79
2022/08/30 08:35:54;;;;;;;5.68;1.80;;;18.40;99.90;;;;;;5074614;28;20116;-77
2022/08/30 08:38:22;;;;;;;4.18;1.63;;;18.40;99.90;;;;;;5076147;28;20020;-76
2022/08/30 08:41:09;;;;;;;3.22;0.95;;;18.40;99.90;;;;;;5075834;28;20046;-77
2022/08/30 08:43:37;;;;;;;1.50;0.70;;;18.40;98.90;;;;;;5075861;28;20024;-75
2022/08/30 08:46:37;;;;;;;3.00;1.45;;;18.40;97.90;;;;;;5073594;28;20036;-76
2022/08/30 08:49:07;;;;;;;4.03;1.40;;;18.30;98.80;;;;;;5074751;28;20073;-76
2022/08/30 08:54:34;;;;;;;2.85;1.45;;;17.80;99.90;;;;;;5075621;28;20034;-74
2022/08/30 08:57:01;;;;;;;2.90;1.30;;;17.70;98.90;;;;;;5073818;28;20025;-75
2022/08/30 08:59:32;;;;;;;3.10;1.33;;;17.70;98.40;;;;;;5074290;28;20382;-76
2022/08/30 09:02:02;;;;;;;4.03;1.25;;;17.70;99.30;;;;;;5073627;28;20020;-76
2022/08/30 09:04:36;;;;;;;5.35;2.83;;;17.70;98.90;;;;;;5074961;28;20020;-76
2022/08/30 09:07:20;;;;;;;6.20;3.45;;;17.70;98.70;;;;;;5074619;28;20115;-75
2022/08/30 09:09:50;;;;;;;4.55;1.85;;;17.60;98.50;;;;;;5074651;28;20035;-74
2022/08/30 09:12:19;;;;;;;1.90;1.27;;;17.50;97.80;;;;;;5075575;28;20116;-76
2022/08/30 09:14:51;;;;;;;3.60;1.23;;;17.50;98.10;;;;;;5073471;28;20349;-76
2022/08/30 09:17:20;;;;;;;3.10;1.02;;;17.70;97.30;;;;;;5057579;28;20029;-75
2022/08/30 09:19:54;;;;;;;2.17;0.95;;;17.90;96.20;;;;;;5073669;28;20021;-76
2022/08/30 09:22:41;;;;;;;2.78;0.85;;;18.00;96.20;;;;;;5074290;28;20025;-76
2022/08/30 09:25:29;;;;;;;2.33;1.40;;;17.80;96.20;;;;;;5073359;28;20021;-75
2022/08/30 09:28:14;;;;;;;2.92;1.10;;;17.80;96.40;;;;;;5073127;28;20086;-75
2022/08/30 09:31:02;;;;;;;1.33;0.73;;;17.80;96.60;;;;;;5073548;28;20385;-76
2022/08/30 09:33:30;;;;;;;2.20;0.60;;;17.90;96.10;;;;;;5074480;28;20017;-77
2022/08/30 09:36:12;;;;;;;2.38;0.50;;;17.80;96.40;;;;;;5074388;28;20029;-76
2022/08/30 09:38:41;;;;;;;2.38;0.60;;;17.70;96.50;;;;;;5074638;28;20047;-75
2022/08/30 09:41:48;;;;;;;1.58;0.60;;;17.70;96.60;;;;;;5057222;28;20090;-75
2022/08/30 09:44:26;;;;;;;3.40;0.80;;;17.60;96.40;;;;;;5073201;28;20056;-76
2022/08/30 09:46:56;;;;;;;1.27;0.60;;;17.60;96.60;;;;;;5073188;28;20388;-75
2022/08/30 09:49:32;;;;;;;3.22;1.05;;;17.60;96.60;;;;;;5074662;28;20016;-76
2022/08/30 09:52:18;;;;;;;4.15;0.60;;;17.60;96.60;;;;;;5072301;28;20035;-75
2022/08/30 09:55:20;;;;;;;1.90;0.93;;;17.40;96.70;;;;;;5073688;28;20435;-75
2022/08/30 09:58:16;;;;;;;2.28;0.98;;;17.40;97.20;;;;;;5073832;28;20063;-76
2022/08/30 10:01:00;;;;;;;2.20;0.60;;;17.30;97.30;;;;;;5054714;28;20111;-74
2022/08/30 10:03:36;;;;;;;3.30;0.98;;;17.20;97.10;;;;;;5057535;28;20485;-75
2022/08/30 10:06:26;;;;;;;1.55;0.70;;;17.20;97.20;;;;;;5072874;28;20026;-75
2022/08/30 10:09:30;;;;;;;2.00;0.57;;;17.30;97.60;;;;;;5073313;28;20484;-75
2022/08/30 10:12:09;;;;;;;2.67;0.70;;;17.40;97.10;;;;;;5074608;28;20031;-75
2022/08/30 10:14:49;;;;;;;1.98;0.75;;;17.40;97.20;;;;;;5072955;28;20554;-76
2022/08/30 10:17:47;;;;;;;2.05;0.55;;;17.30;97.30;;;;;;5074529;28;20487;-74
2022/08/30 10:20:40;;;;;;;1.38;0.45;;;17.30;97.50;;;;;;5073716;28;20020;-74
2022/08/30 10:23:34;;;;;;;1.80;0.60;;;17.30;97.60;;;;;;5072399;28;20017;-75
2022/08/30 10:26:11;;;;;;;1.13;0.50;;;17.30;97.70;;;;;;5072315;28;20028;-75
2022/08/30 10:28:48;;;;;;;1.55;0.50;;;17.20;98.00;;;;;;5072754;28;20484;-72
2022/08/30 10:31:38;;;;;;;2.00;0.47;;;17.10;98.20;;;;;;5073945;28;20068;-74
2022/08/30 10:34:20;;;;;;;1.08;0.50;;;17.20;98.30;;;;;;5073335;28;20469;-73
2022/08/30 10:36:56;;;;;;;1.63;0.50;;;17.10;98.50;;;;;;5073330;28;20024;-75
2022/08/30 10:39:29;;;;;;;3.25;1.08;;;17.00;98.70;;;;;;5072339;28;20082;-74
2022/08/30 10:42:08;;;;;;;2.45;0.57;;;16.90;99.00;;;;;;5056412;28;20040;-75
2022/08/30 10:44:41;;;;;;;1.92;0.57;;;16.80;99.20;;;;;;5075932;28;20036;-75
2022/08/30 10:47:24;;;;;;;1.23;0.50;;;16.90;99.10;;;;;;5077156;28;20036;-74
2022/08/30 10:50:14;;;;;;;2.63;0.80;;;16.80;99.60;;;;;;5077030;28;20078;-73
2022/08/30 10:52:59;;;;;;;3.47;0.83;;;16.70;99.60;;;;;;5076727;28;20064;-73
2022/08/30 10:55:57;;;;;;;2.65;0.68;;;16.60;99.80;;;;;;5076461;28;20029;-75
2022/08/30 10:58:25;;;;;;;0.68;0.40;;;16.60;99.90;;;;;;5049889;28;20515;-75
2022/08/30 11:01:39;;;;;;;2.17;0.55;;;16.50;99.90;;;;;;5075228;28;20020;-73
2022/08/30 11:04:52;;;;;;;1.92;0.50;;;16.50;99.90;;;;;;5074765;28;20480;-74
2022/08/30 11:07:19;;;;;;;1.42;0.38;;;16.40;99.90;;;;;;5074966;28;20027;-73
2022/08/30 11:10:04;;;;;;;1.35;0.30;;;16.30;99.90;;;;;;5074739;28;20445;-74
2022/08/30 11:12:43;;;;;;;1.85;0.50;;;16.30;99.90;;;;;;5076562;28;20021;-74
2022/08/30 11:15:18;;;;;;;1.48;0.50;;;16.30;99.90;;;;;;5075151;28;20035;-74
2022/08/30 11:18:09;;;;;;;1.63;0.50;;;16.30;99.90;;;;;;5076497;28;20101;-74
2022/08/30 11:20:52;;;;;;;1.40;0.57;;;16.30;99.90;;;;;;5074958;28;20432;-74
2022/08/30 11:23:49;;;;;;;3.42;0.65;;;16.30;99.90;;;;;;5076623;28;20112;-73
2022/08/30 11:26:44;;;;;;;1.75;0.60;;;16.20;99.90;;;;;;5067532;28;20412;-74
2022/08/30 11:29:40;;;;;;;2.83;0.68;;;16.10;99.90;;;;;;5074785;28;20062;-74
2022/08/30 11:32:16;;;;;;;1.60;0.60;;;16.10;99.90;;;;;;5075412;28;20116;-76
2022/08/30 11:34:46;;;;;;;1.70;0.60;;;16.00;99.90;;;;;;5074938;28;20024;-73
2022/08/30 11:37:42;;;;;;;2.72;0.70;;;16.00;99.90;;;;;;5074935;28;20082;-73
2022/08/30 11:40:13;;;;;;;3.22;0.75;;;16.00;99.90;;;;;;5061889;28;20028;-74
2022/08/30 11:42:48;;;;;;;1.70;0.70;;;15.90;99.90;;;;;;5074738;28;20043;-74
2022/08/30 11:45:27;;;;;;;1.17;0.65;;;15.80;99.90;;;;;;5075863;28;20542;-74
2022/08/30 11:47:57;;;;;;;3.25;1.13;;;15.80;99.90;;;;;;5075912;28;20476;-74
2022/08/30 11:50:49;;;;;;;2.42;0.65;;;15.80;99.90;;;;;;5074923;28;20017;-73
2022/08/30 11:53:30;;;;;;;3.35;0.65;;;15.70;99.90;;;;;;5075481;28;20051;-73
2022/08/30 11:56:05;;;;;;;1.42;0.45;;;15.70;99.90;;;;;;5074313;28;20396;-73
2022/08/30 11:58:41;;;;;;;3.55;0.90;;;15.60;99.90;;;;;;5075977;28;20101;-75
2022/08/30 12:01:14;;;;;;;1.13;0.57;;;15.50;99.90;;;;;;5075762;28;20016;-74
2022/08/30 12:03:42;;;;;;;1.73;0.60;;;15.50;99.90;;;;;;5075429;28;20051;-74
2022/08/30 12:06:11;;;;;;;3.30;0.70;;;15.50;99.90;;;;;;5075505;28;20035;-73
2022/08/30 12:08:47;;;;;;;2.90;0.70;;;15.50;99.90;;;;;;5075820;28;20052;-73
2022/08/30 12:11:14;;;;;;;1.90;0.95;;;15.50;99.90;;;;;;5075647;28;20429;-73
2022/08/30 12:13:44;;;;;;;1.83;0.80;;;15.50;99.90;;;;;;5075417;28;20032;-73
2022/08/30 12:18:26;;;;;;;3.00;1.05;;;15.40;99.90;;;;;;5074216;28;20039;-73
2022/08/30 12:19:28;;;;;;;2.03;0.60;;;15.30;99.90;;;;;;5075637;28;20089;-72
2022/08/30 12:22:01;;;;;;;2.03;0.60;;;15.40;99.90;;;;;;5074095;28;20052;-72
2022/08/30 12:24:43;;;;;;;3.17;0.80;;;15.30;99.90;;;;;;5075478;28;20408;-73
2022/08/30 12:27:27;;;;;;;2.15;0.80;;;15.30;99.90;;;;;;5073797;28;20063;-74
2022/08/30 12:30:00;;;;;;;2.65;1.10;;;15.30;99.90;;;;;;5073977;28;20028;-72
2022/08/30 12:32:29;;;;;;;2.15;0.70;;;15.20;99.90;;;;;;5075722;28;20028;-72
2022/08/30 12:35:02;;;;;;;2.22;0.75;;;15.20;99.90;;;;;;5074780;28;20101;-74
2022/08/30 12:37:29;;;;;;;1.75;0.70;;;15.20;99.90;;;;;;5073804;28;20028;-74
2022/08/30 12:40:10;;;;;;;1.67;0.60;;;15.10;99.90;;;;;;5075452;28;20021;-74
2022/08/30 12:42:41;;;;;;;2.85;0.82;;;15.10;99.90;;;;;;5075299;28;20073;-73
2022/08/30 12:45:14;;;;;;;1.25;0.60;;;15.20;99.90;;;;;;5075175;28;20472;-73
2022/08/30 12:48:04;;;;;;;1.83;0.60;;;15.20;99.90;;;;;;5075144;28;20021;-74
2022/08/30 12:50:37;;;;;;;1.00;0.63;;;15.20;99.90;;;;;;5075089;28;20024;-73
2022/08/30 12:53:11;;;;;;;1.20;0.50;;;15.10;99.90;;;;;;5074811;28;20048;-73
2022/08/30 12:56:01;;;;;;;2.13;0.90;;;15.10;99.90;;;;;;5073138;28;20042;-73
2022/08/30 12:58:51;;;;;;;2.47;0.63;;;15.00;99.90;;;;;;5074752;28;20063;-73
2022/08/30 13:01:32;;;;;;;2.08;0.60;;;14.90;99.90;;;;;;5074717;28;20028;-73
2022/08/30 13:04:22;;;;;;;3.60;0.90;;;14.90;99.90;;;;;;5073485;28;20162;-74
2022/08/30 13:06:52;;;;;;;1.80;0.50;;;14.80;99.90;;;;;;5074562;28;20039;-72
2022/08/30 13:09:33;;;;;;;2.42;0.60;;;14.80;99.90;;;;;;5075232;28;20047;-73
2022/08/30 13:12:19;;;;;;;2.67;0.70;;;14.80;99.90;;;;;;5073667;28;20037;-75
2022/08/30 13:14:48;;;;;;;1.85;0.50;;;14.70;99.90;;;;;;5074005;28;20388;-74
2022/08/30 13:17:29;;;;;;;4.43;0.88;;;14.70;99.90;;;;;;5073516;28;20028;-73
2022/08/30 13:20:04;;;;;;;1.17;0.52;;;14.70;99.90;;;;;;5075238;28;20457;-75